Time;durP1;ratioP1;P1;durP2;ratioP2;P2;SDS_P1;SDS_P2;PMS_P1;PMS_P2;Temp;Humidity;BMP_temperature;BMP_pressure;BME280_temperature;BME280_humidity;BME280_pressure;Samples;Min_cycle;Max_cycle;Signal;HPM_P1;HPM_P2
2022/11/20 00:00:15;;;;;;;43.20;16.13;;;;;;;;;;5059507;28;20049;-81
2022/11/20 00:02:41;;;;;;;46.15;17.10;;;;;;;;;;5058134;28;20049;-83
2022/11/20 00:05:08;;;;;;;42.90;15.98;;;;;;;;;;5059666;28;20053;-82
2022/11/20 00:07:34;;;;;;;46.28;16.85;;;;;;;;;;5060485;28;20056;-82
2022/11/20 00:10:01;;;;;;;46.05;17.00;;;;;;;;;;5058652;28;20068;-82
2022/11/20 00:12:27;;;;;;;45.35;16.20;;;;;;;;;;5059868;28;20496;-80
2022/11/20 00:14:54;;;;;;;52.83;18.35;;;;;;;;;;5061254;28;20057;-81
2022/11/20 00:17:22;;;;;;;46.47;17.88;;;;;;;;;;5064913;28;20467;-81
2022/11/20 00:19:48;;;;;;;50.00;17.52;;;;;;;;;;5059092;28;20060;-82
2022/11/20 00:22:14;;;;;;;45.25;16.30;;;;;;;;;;5061927;28;20049;-79
2022/11/20 00:24:41;;;;;;;48.97;17.17;;;;;;;;;;5063245;28;20045;-82
2022/11/20 00:27:08;;;;;;;45.92;16.65;;;;;;;;;;5061370;28;20041;-83
2022/11/20 00:29:35;;;;;;;45.53;15.68;;;;;;;;;;5060211;28;20053;-82
2022/11/20 00:32:01;;;;;;;48.47;16.27;;;;;;;;;;5055385;28;20155;-80
2022/11/20 00:34:27;;;;;;;49.22;18.05;;;;;;;;;;5059484;28;20063;-82
2022/11/20 00:36:54;;;;;;;48.70;16.25;;;;;;;;;;5063778;28;20059;-82
2022/11/20 00:39:20;;;;;;;49.17;17.35;;;;;;;;;;5075122;28;20098;-81
2022/11/20 00:41:47;;;;;;;47.67;16.85;;;;;;;;;;5076696;28;20045;-78
2022/11/20 00:44:13;;;;;;;48.45;17.95;;;;;;;;;;5075139;28;20116;-81
2022/11/20 00:46:40;;;;;;;44.83;16.83;;;;;;;;;;5076805;28;20116;-81
2022/11/20 00:49:06;;;;;;;46.20;17.50;;;;;;;;;;5076531;28;20052;-82
2022/11/20 00:51:33;;;;;;;48.33;17.00;;;;;;;;;;5070801;28;20093;-83
2022/11/20 00:53:59;;;;;;;55.15;18.02;;;;;;;;;;5077667;28;20037;-80
2022/11/20 00:56:26;;;;;;;45.38;16.25;;;;;;;;;;5075068;28;20085;-80
2022/11/20 00:58:53;;;;;;;46.83;17.90;;;;;;;;;;5060035;28;20120;-82
2022/11/20 01:01:28;;;;;;;51.38;18.30;;;;;;;;;;5057494;28;20049;-82
2022/11/20 01:03:56;;;;;;;46.70;16.65;;;;;;;;;;5058135;28;20049;-83
2022/11/20 01:06:23;;;;;;;47.40;17.50;;;;;;;;;;5057691;28;20045;-82
2022/11/20 01:08:50;;;;;;;46.65;17.77;;;;;;;;;;5057928;28;20081;-82
2022/11/20 01:11:18;;;;;;;44.45;16.98;;;;;;;;;;5057453;28;20091;-82
2022/11/20 01:13:45;;;;;;;45.75;17.38;;;;;;;;;;5056281;28;20048;-82
2022/11/20 01:16:12;;;;;;;48.80;17.48;;;;;;;;;;5056191;28;20049;-82
2022/11/20 01:18:40;;;;;;;51.15;17.50;;;;;;;;;;5056952;28;20057;-82
2022/11/20 01:21:14;;;;;;;43.50;17.02;;;;;;;;;;5059549;28;20489;-82
2022/11/20 01:23:41;;;;;;;44.35;17.77;;;;;;;;;;5056728;28;20053;-81
2022/11/20 01:26:09;;;;;;;50.60;18.10;;;;;;;;;;5054771;28;20148;-81
2022/11/20 01:28:36;;;;;;;50.90;17.65;;;;;;;;;;5054403;28;20068;-81
2022/11/20 01:31:23;;;;;;;47.90;18.08;;;;;;;;;;5055803;28;20049;-82
2022/11/20 01:33:51;;;;;;;49.00;17.73;;;;;;;;;;5056270;28;20052;-79
2022/11/20 01:36:18;;;;;;;52.63;18.60;;;;;;;;;;5057835;28;20554;-82
2022/11/20 01:38:44;;;;;;;47.75;18.25;;;;;;;;;;5056497;28;20049;-81
2022/11/20 01:43:20;;;;;;;43.85;15.93;;;;;;;;;;5057036;28;20051;-82
2022/11/20 01:43:58;;;;;;;46.92;17.13;;;;;;;;;;5075039;28;20029;-82
2022/11/20 01:46:25;;;;;;;55.00;20.05;;;;;;;;;;5065908;28;20045;-80
2022/11/20 01:49:00;;;;;;;55.97;19.88;;;;;;;;;;5058525;28;20073;-81
2022/11/20 01:51:42;;;;;;;56.60;19.30;;;;;;;;;;5056595;28;20052;-81
2022/11/20 01:54:10;;;;;;;57.92;20.65;;;;;;;;;;5055383;28;20152;-81
2022/11/20 01:56:38;;;;;;;57.63;20.40;;;;;;;;;;5056339;28;20131;-81
2022/11/20 01:59:05;;;;;;;49.10;18.65;;;;;;;;;;5056142;28;20057;-82
2022/11/20 02:01:32;;;;;;;51.05;18.98;;;;;;;;;;5053165;28;20064;-84
2022/11/20 02:03:59;;;;;;;54.95;20.38;;;;;;;;;;5052927;28;20041;-80
2022/11/20 02:06:28;;;;;;;58.60;19.83;;;;;;;;;;5055513;28;20535;-82
2022/11/20 02:08:54;;;;;;;61.88;20.98;;;;;;;;;;5054590;28;20067;-81
2022/11/20 02:11:21;;;;;;;52.88;20.25;;;;;;;;;;5054215;28;20144;-80
2022/11/20 02:13:48;;;;;;;55.10;19.50;;;;;;;;;;5053609;28;20057;-81
2022/11/20 02:16:16;;;;;;;63.10;21.38;;;;;;;;;;5050923;28;20064;-81
2022/11/20 02:18:43;;;;;;;57.15;19.73;;;;;;;;;;5035255;28;20175;-82
2022/11/20 02:21:12;;;;;;;57.30;20.75;;;;;;;;;;5033423;28;20076;-83
2022/11/20 02:23:43;;;;;;;53.85;20.13;;;;;;;;;;5033489;28;20055;-82
2022/11/20 02:26:12;;;;;;;49.88;18.52;;;;;;;;;;5034601;28;20068;-82
2022/11/20 02:28:38;;;;;;;58.05;19.92;;;;;;;;;;5033667;28;20049;-82
2022/11/20 02:31:05;;;;;;;56.08;19.58;;;;;;;;;;5033441;28;20049;-82
2022/11/20 02:33:31;;;;;;;55.17;20.55;;;;;;;;;;5031662;28;20140;-81
2022/11/20 02:35:57;;;;;;;49.60;18.63;;;;;;;;;;5035873;28;20056;-81
2022/11/20 02:38:24;;;;;;;59.50;20.52;;;;;;;;;;5035379;28;20109;-80
2022/11/20 02:40:50;;;;;;;54.70;20.50;;;;;;;;;;5032930;28;20049;-82
2022/11/20 02:43:21;;;;;;;57.00;19.67;;;;;;;;;;5033353;28;20370;-82
2022/11/20 02:45:47;;;;;;;57.45;19.35;;;;;;;;;;5034197;28;20056;-82
2022/11/20 02:48:14;;;;;;;47.47;18.50;;;;;;;;;;5034039;28;20391;-82
2022/11/20 02:50:40;;;;;;;53.33;19.33;;;;;;;;;;5032836;28;20053;-81
2022/11/20 02:53:07;;;;;;;46.30;17.63;;;;;;;;;;5032413;28;20053;-83
2022/11/20 02:55:33;;;;;;;50.55;16.48;;;;;;;;;;5033633;28;20049;-83
2022/11/20 02:58:00;;;;;;;48.17;16.73;;;;;;;;;;5033375;28;20478;-83
2022/11/20 03:00:26;;;;;;;48.85;16.98;;;;;;;;;;5034807;28;20278;-83
2022/11/20 03:02:52;;;;;;;49.30;17.58;;;;;;;;;;5033533;28;20060;-82
2022/11/20 03:05:19;;;;;;;48.67;17.33;;;;;;;;;;5053731;28;20045;-81
2022/11/20 03:07:45;;;;;;;48.20;17.65;;;;;;;;;;5057886;28;20049;-81
2022/11/20 03:10:12;;;;;;;53.17;18.17;;;;;;;;;;5053614;28;20053;-82
2022/11/20 03:12:38;;;;;;;49.13;16.90;;;;;;;;;;5053365;28;20174;-80
2022/11/20 03:15:05;;;;;;;45.60;16.98;;;;;;;;;;5042869;28;20053;-80
2022/11/20 03:17:31;;;;;;;50.67;18.15;;;;;;;;;;5034022;28;20053;-81
2022/11/20 03:19:57;;;;;;;48.90;17.65;;;;;;;;;;5033463;28;20045;-82
2022/11/20 03:22:24;;;;;;;49.78;17.13;;;;;;;;;;5032655;28;20596;-83
2022/11/20 03:24:51;;;;;;;57.78;18.98;;;;;;;;;;5037485;28;20132;-83
2022/11/20 03:27:17;;;;;;;50.08;17.65;;;;;;;;;;5053327;28;20132;-83
2022/11/20 03:29:43;;;;;;;44.50;18.17;;;;;;;;;;5043971;28;20057;-83
2022/11/20 03:32:10;;;;;;;51.55;19.02;;;;;;;;;;5033126;28;20056;-81
2022/11/20 03:34:36;;;;;;;47.85;17.92;;;;;;;;;;5032428;28;20050;-81
2022/11/20 03:37:03;;;;;;;48.72;17.52;;;;;;;;;;5049900;28;20045;-82
2022/11/20 03:39:29;;;;;;;45.05;16.83;;;;;;;;;;5034717;28;20042;-83
2022/11/20 03:41:55;;;;;;;47.85;17.00;;;;;;;;;;5032917;28;20095;-83
2022/11/20 03:44:22;;;;;;;44.13;17.23;;;;;;;;;;5033283;28;20083;-79
2022/11/20 03:46:48;;;;;;;54.35;18.35;;;;;;;;;;5033091;28;20088;-82
2022/11/20 03:49:15;;;;;;;50.47;17.15;;;;;;;;;;5034469;28;20062;-80
2022/11/20 03:51:41;;;;;;;47.45;17.23;;;;;;;;;;5041561;28;20177;-80
2022/11/20 03:54:08;;;;;;;53.00;17.95;;;;;;;;;;5066637;28;20144;-81
2022/11/20 03:56:36;;;;;;;54.47;17.90;;;;;;;;;;5069785;28;20101;-81
2022/11/20 03:59:03;;;;;;;39.95;16.30;;;;;;;;;;5067753;28;20041;-80
2022/11/20 04:01:31;;;;;;;46.13;16.83;;;;;;;;;;5073557;28;20043;-82
2022/11/20 04:03:57;;;;;;;43.47;15.77;;;;;;;;;;5074416;28;20044;-81
2022/11/20 04:06:25;;;;;;;50.50;17.23;;;;;;;;;;5075753;28;20053;-82
2022/11/20 04:08:53;;;;;;;45.95;17.17;;;;;;;;;;5074957;28;20047;-83
2022/11/20 04:11:22;;;;;;;45.78;17.38;;;;;;;;;;5064246;28;20059;-81
2022/11/20 04:13:49;;;;;;;47.90;17.05;;;;;;;;;;5060040;28;20076;-82
2022/11/20 04:16:16;;;;;;;41.72;15.73;;;;;;;;;;5042762;28;20061;-81
2022/11/20 04:18:43;;;;;;;45.20;16.55;;;;;;;;;;5040789;28;20049;-82
2022/11/20 04:21:10;;;;;;;44.40;17.02;;;;;;;;;;5040831;28;20050;-83
2022/11/20 04:23:37;;;;;;;42.22;15.25;;;;;;;;;;5043341;28;20156;-81
2022/11/20 04:26:05;;;;;;;43.92;16.42;;;;;;;;;;5043218;28;20042;-82
2022/11/20 04:28:31;;;;;;;43.55;15.07;;;;;;;;;;5042251;28;20056;-82
2022/11/20 04:31:06;;;;;;;43.08;15.27;;;;;;;;;;5041233;28;20049;-83
2022/11/20 04:33:33;;;;;;;36.58;14.02;;;;;;;;;;5031390;28;20056;-82
2022/11/20 04:36:19;;;;;;;41.97;15.13;;;;;;;;;;5035492;28;20472;-83
2022/11/20 04:38:46;;;;;;;41.05;14.35;;;;;;;;;;5035807;28;20194;-83
2022/11/20 04:41:20;;;;;;;36.22;14.23;;;;;;;;;;5035793;28;20049;-83
2022/11/20 04:43:50;;;;;;;40.83;14.50;;;;;;;;;;5033349;28;20064;-82
2022/11/20 04:46:17;;;;;;;42.50;15.02;;;;;;;;;;5037334;28;20045;-83
2022/11/20 04:48:43;;;;;;;44.63;15.40;;;;;;;;;;5036260;28;20049;-84
2022/11/20 04:51:10;;;;;;;40.17;15.00;;;;;;;;;;5036684;28;20049;-83
2022/11/20 04:53:36;;;;;;;40.53;13.73;;;;;;;;;;5035283;28;20554;-80
2022/11/20 04:56:04;;;;;;;41.45;14.68;;;;;;;;;;5036651;28;20057;-84
2022/11/20 04:58:31;;;;;;;37.45;13.18;;;;;;;;;;5036474;28;20068;-81
2022/11/20 05:01:05;;;;;;;38.55;14.88;;;;;;;;;;5035839;28;20052;-82
2022/11/20 05:03:32;;;;;;;39.38;14.30;;;;;;;;;;5039690;28;20052;-83
2022/11/20 05:06:05;;;;;;;36.83;13.45;;;;;;;;;;5057447;28;20051;-83
2022/11/20 05:08:32;;;;;;;40.08;13.80;;;;;;;;;;5057206;28;20045;-82
2022/11/20 05:11:08;;;;;;;42.92;13.88;;;;;;;;;;5059323;28;20057;-84
2022/11/20 05:13:34;;;;;;;38.80;13.45;;;;;;;;;;5056218;28;20155;-83
2022/11/20 05:16:02;;;;;;;37.22;14.07;;;;;;;;;;5061859;28;20049;-81
2022/11/20 05:18:29;;;;;;;42.53;15.32;;;;;;;;;;5055352;28;20049;-81
2022/11/20 05:20:56;;;;;;;43.97;14.75;;;;;;;;;;5054845;28;20172;-84
2022/11/20 05:23:23;;;;;;;42.17;14.88;;;;;;;;;;5054615;28;20497;-80
2022/11/20 05:25:51;;;;;;;47.75;14.75;;;;;;;;;;5055033;28;20049;-81
2022/11/20 05:28:24;;;;;;;;;;;;;;;;;;5056051;28;20053;-82
2022/11/20 05:30:50;;;;;;;39.97;13.93;;;;;;;;;;5056260;28;20007;-83
2022/11/20 05:33:17;;;;;;;45.30;15.10;;;;;;;;;;5055005;28;20485;-82
2022/11/20 05:35:43;;;;;;;37.80;12.98;;;;;;;;;;5056780;28;20079;-85
2022/11/20 05:38:10;;;;;;;36.55;13.02;;;;;;;;;;5056495;28;20064;-83
2022/11/20 05:40:36;;;;;;;42.53;13.73;;;;;;;;;;5054622;28;20124;-82
2022/11/20 05:43:03;;;;;;;32.72;11.88;;;;;;;;;;5054592;28;20389;-82
2022/11/20 05:45:29;;;;;;;42.22;14.73;;;;;;;;;;5053477;28;20059;-82
2022/11/20 05:47:59;;;;;;;37.30;13.02;;;;;;;;;;5054225;28;20497;-82
2022/11/20 05:50:27;;;;;;;36.00;13.15;;;;;;;;;;5055529;28;20502;-84
2022/11/20 05:52:53;;;;;;;31.52;11.65;;;;;;;;;;5053267;28;20045;-83
2022/11/20 05:55:20;;;;;;;38.63;13.75;;;;;;;;;;5057002;28;20049;-82
2022/11/20 05:57:46;;;;;;;39.35;14.18;;;;;;;;;;5054772;28;20049;-83
2022/11/20 06:00:13;;;;;;;36.78;13.40;;;;;;;;;;5068165;28;20106;-81
2022/11/20 06:02:39;;;;;;;42.05;14.10;;;;;;;;;;5071866;28;20048;-83
2022/11/20 06:05:06;;;;;;;38.13;13.48;;;;;;;;;;5054775;28;20132;-82
2022/11/20 06:07:33;;;;;;;29.90;11.40;;;;;;;;;;5054249;28;20045;-83
2022/11/20 06:09:59;;;;;;;38.40;13.13;;;;;;;;;;5055163;28;20152;-79
2022/11/20 06:12:26;;;;;;;36.40;12.93;;;;;;;;;;5055594;28;20059;-82
2022/11/20 06:14:52;;;;;;;34.75;12.98;;;;;;;;;;5056014;28;20055;-82
2022/11/20 06:17:18;;;;;;;38.20;14.05;;;;;;;;;;5053692;28;20053;-80
2022/11/20 06:19:45;;;;;;;35.85;13.25;;;;;;;;;;5055223;28;20104;-81
2022/11/20 06:22:11;;;;;;;37.03;12.82;;;;;;;;;;5055149;28;20059;-83
2022/11/20 06:24:37;;;;;;;35.10;12.93;;;;;;;;;;5052919;28;20063;-81
2022/11/20 06:27:04;;;;;;;36.92;12.77;;;;;;;;;;5057156;28;20045;-77
2022/11/20 06:29:30;;;;;;;37.53;13.35;;;;;;;;;;5069848;28;20033;-79
2022/11/20 06:31:59;;;;;;;39.92;13.48;;;;;;;;;;5058190;28;20141;-80
2022/11/20 06:34:26;;;;;;;37.67;13.60;;;;;;;;;;5049422;28;20045;-82
2022/11/20 06:36:52;;;;;;;35.42;13.68;;;;;;;;;;5049996;28;20055;-80
2022/11/20 06:39:18;;;;;;;39.75;14.13;;;;;;;;;;5049343;28;20049;-83
2022/11/20 06:41:46;;;;;;;35.70;12.57;;;;;;;;;;5048374;28;20049;-80
2022/11/20 06:44:12;;;;;;;35.95;13.02;;;;;;;;;;5047549;28;20045;-81
2022/11/20 06:46:38;;;;;;;33.38;12.95;;;;;;;;;;5048694;28;20497;-80
2022/11/20 06:49:05;;;;;;;33.90;12.85;;;;;;;;;;5051890;28;20040;-82
2022/11/20 06:51:32;;;;;;;33.97;12.60;;;;;;;;;;5049788;28;20145;-82
2022/11/20 06:53:58;;;;;;;33.28;12.38;;;;;;;;;;5049438;28;20314;-81
2022/11/20 06:56:24;;;;;;;33.95;12.60;;;;;;;;;;5057576;28;20108;-78
2022/11/20 06:58:51;;;;;;;35.28;12.65;;;;;;;;;;5067831;28;20033;-78
2022/11/20 07:01:17;;;;;;;37.70;12.52;;;;;;;;;;5070538;28;20064;-80
2022/11/20 07:03:44;;;;;;;35.13;12.82;;;;;;;;;;5066206;28;20105;-79
2022/11/20 07:06:16;;;;;;;36.60;13.20;;;;;;;;;;5054585;28;20049;-81
2022/11/20 07:08:43;;;;;;;40.65;13.35;;;;;;;;;;5048643;28;20570;-82
2022/11/20 07:11:11;;;;;;;30.95;11.90;;;;;;;;;;5036420;28;20061;-81
2022/11/20 07:13:37;;;;;;;33.45;12.50;;;;;;;;;;5044608;28;20064;-80
2022/11/20 07:16:06;;;;;;;35.13;12.30;;;;;;;;;;5035565;28;20049;-83
2022/11/20 07:18:32;;;;;;;31.75;12.23;;;;;;;;;;5044172;28;20064;-81
2022/11/20 07:21:03;;;;;;;34.63;11.85;;;;;;;;;;5033337;28;20768;-83
2022/11/20 07:23:29;;;;;;;31.63;12.85;;;;;;;;;;5047153;28;20065;-81
2022/11/20 07:25:55;;;;;;;30.33;11.90;;;;;;;;;;5049421;28;20041;-81
2022/11/20 07:28:22;;;;;;;33.33;13.35;;;;;;;;;;5049401;28;20045;-82
2022/11/20 07:30:52;;;;;;;40.35;12.85;;;;;;;;;;5048794;28;20048;-82
2022/11/20 07:33:19;;;;;;;36.53;12.90;;;;;;;;;;5051201;28;20055;-80
2022/11/20 07:35:46;;;;;;;34.15;12.50;;;;;;;;;;5049823;28;20049;-80
2022/11/20 07:38:12;;;;;;;33.97;12.90;;;;;;;;;;5044359;28;20058;-80
2022/11/20 07:40:39;;;;;;;32.58;13.13;;;;;;;;;;5061327;28;20112;-81
2022/11/20 07:43:05;;;;;;;38.85;14.63;;;;;;;;;;5055002;28;20049;-81
2022/11/20 07:45:31;;;;;;;34.22;12.60;;;;;;;;;;5050523;28;20045;-79
2022/11/20 07:47:58;;;;;;;39.88;14.13;;;;;;;;;;5062430;28;20045;-83
2022/11/20 07:50:24;;;;;;;39.70;14.40;;;;;;;;;;5049328;28;20109;-81
2022/11/20 07:52:50;;;;;;;31.45;13.27;;;;;;;;;;5056172;28;20072;-80
2022/11/20 07:55:17;;;;;;;37.05;14.45;;;;;;;;;;5053438;28;20087;-81
2022/11/20 07:57:43;;;;;;;37.90;14.30;;;;;;;;;;5055674;28;20100;-80
2022/11/20 08:00:10;;;;;;;37.63;13.93;;;;;;;;;;5065553;28;20125;-80
2022/11/20 08:02:38;;;;;;;43.30;14.50;;;;;;;;;;5055108;28;20186;-78
2022/11/20 08:05:05;;;;;;;36.50;14.73;;;;;;;;;;5065087;28;20067;-81
2022/11/20 08:07:38;;;;;;;34.05;14.27;;;;;;;;;;5062022;28;20129;-81
2022/11/20 08:10:06;;;;;;;51.65;17.85;;;;;;;;;;5062838;28;20041;-82
2022/11/20 08:15:17;;;;;;;80.22;26.95;;;;;;;;;;5064707;28;20162;-81
2022/11/20 08:17:44;;;;;;;62.30;23.00;;;;;;;;;;5065428;28;20083;-81
2022/11/20 08:20:30;;;;;;;46.13;18.75;;;;;;;;;;5065329;28;20072;-78
2022/11/20 08:22:58;;;;;;;36.83;14.48;;;;;;;;;;5055472;28;20061;-79
2022/11/20 08:25:25;;;;;;;33.05;13.48;;;;;;;;;;5060733;28;20107;-79
2022/11/20 08:27:51;;;;;;;29.17;11.88;;;;;;;;;;5066151;28;20100;-77
2022/11/20 08:30:23;;;;;;;26.90;11.18;;;;;;;;;;5058744;28;20045;-79
2022/11/20 08:32:49;;;;;;;30.33;11.85;;;;;;;;;;5065674;28;20068;-81
2022/11/20 08:35:15;;;;;;;25.40;10.90;;;;;;;;;;5070313;28;20048;-78
2022/11/20 08:37:45;;;;;;;24.38;10.52;;;;;;;;;;5057152;28;20056;-82
2022/11/20 08:40:11;;;;;;;23.75;9.85;;;;;;;;;;5058983;28;20064;-80
2022/11/20 08:42:48;;;;;;;21.83;9.43;;;;;;;;;;5042609;28;20055;-81
2022/11/20 08:45:15;;;;;;;32.45;12.77;;;;;;;;;;5050771;28;20056;-82
2022/11/20 08:47:42;;;;;;;31.50;13.45;;;;;;;;;;5045566;28;20056;-79
2022/11/20 08:50:09;;;;;;;28.20;10.60;;;;;;;;;;5058779;28;20049;-80
2022/11/20 08:52:36;;;;;;;31.42;13.02;;;;;;;;;;5072270;28;20041;-80
2022/11/20 08:55:05;;;;;;;43.38;16.58;;;;;;;;;;5058309;28;20056;-84
2022/11/20 08:57:32;;;;;;;35.28;14.65;;;;;;;;;;5052884;28;20065;-79
2022/11/20 08:59:59;;;;;;;35.60;12.95;;;;;;;;;;5051539;28;20431;-82
2022/11/20 09:02:32;;;;;;;43.13;17.35;;;;;;;;;;5043599;28;20091;-81
2022/11/20 09:04:59;;;;;;;53.88;22.42;;;;;;;;;;5052617;28;20359;-82
2022/11/20 09:07:25;;;;;;;31.08;13.93;;;;;;;;;;5044653;28;20113;-82
2022/11/20 09:09:52;;;;;;;23.92;11.63;;;;;;;;;;5047023;28;20055;-81
2022/11/20 09:12:38;;;;;;;21.40;9.02;;;;;;;;;;5050799;28;20056;-81
2022/11/20 09:15:05;;;;;;;16.35;8.52;;;;;;;;;;5051515;28;20120;-80
2022/11/20 09:17:31;;;;;;;15.02;8.10;;;;;;;;;;5048321;28;20053;-78
2022/11/20 09:19:58;;;;;;;18.27;7.93;;;;;;;;;;5045157;28;20053;-80
2022/11/20 09:22:25;;;;;;;15.80;7.28;;;;;;;;;;5048104;28;20052;-79
2022/11/20 09:24:51;;;;;;;15.73;7.07;;;;;;;;;;5050499;28;20299;-79
2022/11/20 09:27:21;;;;;;;14.40;7.32;;;;;;;;;;5049465;28;20044;-81
2022/11/20 09:29:47;;;;;;;15.25;7.60;;;;;;;;;;5049152;28;20048;-80
2022/11/20 09:32:14;;;;;;;14.93;6.93;;;;;;;;;;5038906;28;20509;-79
2022/11/20 09:34:40;;;;;;;16.48;7.40;;;;;;;;;;5044394;28;20057;-81
2022/11/20 09:37:07;;;;;;;19.77;8.07;;;;;;;;;;5048585;28;20088;-80
2022/11/20 09:39:34;;;;;;;18.48;8.38;;;;;;;;;;5048258;28;20118;-80
2022/11/20 09:42:11;;;;;;;18.63;7.70;;;;;;;;;;5047386;28;20048;-79
2022/11/20 09:44:52;;;;;;;21.67;8.70;;;;;;;;;;5050661;28;20052;-81
2022/11/20 09:47:37;;;;;;;16.95;7.90;;;;;;;;;;5055488;28;20048;-81
2022/11/20 09:50:21;;;;;;;18.25;7.78;;;;;;;;;;5056792;28;20183;-80
2022/11/20 09:53:06;;;;;;;20.88;7.70;;;;;;;;;;5059741;28;20575;-80
2022/11/20 09:55:33;;;;;;;19.20;8.10;;;;;;;;;;5062569;28;20831;-81
2022/11/20 09:58:00;;;;;;;21.73;7.97;;;;;;;;;;5064884;28;20041;-80
2022/11/20 10:00:27;;;;;;;24.08;9.05;;;;;;;;;;5061997;28;20068;-76
2022/11/20 10:03:02;;;;;;;20.67;8.80;;;;;;;;;;5058044;28;20392;-78
2022/11/20 10:05:41;;;;;;;20.92;8.23;;;;;;;;;;5056354;28;20057;-79
2022/11/20 10:08:09;;;;;;;25.00;9.07;;;;;;;;;;5061314;28;20141;-80
2022/11/20 10:10:56;;;;;;;21.48;9.05;;;;;;;;;;5063851;28;20052;-78
2022/11/20 10:13:25;;;;;;;22.10;9.23;;;;;;;;;;5058021;28;20041;-76
2022/11/20 10:16:10;;;;;;;22.83;8.98;;;;;;;;;;5048400;28;20068;-74
2022/11/20 10:18:53;;;;;;;19.10;8.20;;;;;;;;;;5063490;28;20228;-78
2022/11/20 10:21:22;;;;;;;19.63;8.57;;;;;;;;;;5070076;28;20093;-76
2022/11/20 10:24:00;;;;;;;22.95;8.95;;;;;;;;;;5050888;28;20048;-78
2022/11/20 10:26:27;;;;;;;22.88;9.13;;;;;;;;;;5049640;28;20059;-76
2022/11/20 10:29:06;;;;;;;21.85;9.43;;;;;;;;;;5051049;28;20180;-78
2022/11/20 10:31:36;;;;;;;22.75;8.95;;;;;;;;;;5043072;28;20138;-78
2022/11/20 10:34:11;;;;;;;21.85;8.30;;;;;;;;;;5047136;28;20418;-78
2022/11/20 10:36:52;;;;;;;22.55;9.43;;;;;;;;;;5048738;28;20166;-79
2022/11/20 10:39:28;;;;;;;25.48;9.55;;;;;;;;;;5050942;28;20052;-77
2022/11/20 10:41:55;;;;;;;24.27;9.90;;;;;;;;;;5050619;28;20048;-77
2022/11/20 10:47:15;;;;;;;25.80;9.73;;;;;;;;;;5049104;28;20520;-77
2022/11/20 10:49:43;;;;;;;21.35;9.00;;;;;;;;;;5042065;28;20048;-79
2022/11/20 10:52:12;;;;;;;22.90;9.52;;;;;;;;;;5047108;28;20049;-79
2022/11/20 10:54:54;;;;;;;22.48;10.20;;;;;;;;;;5048522;28;20060;-78
2022/11/20 10:57:39;;;;;;;27.63;10.80;;;;;;;;;;5048815;28;20048;-78
2022/11/20 11:00:08;;;;;;;24.25;10.15;;;;;;;;;;5044494;28;20560;-78
2022/11/20 11:02:43;;;;;;;22.38;9.65;;;;;;;;;;5045235;28;20048;-78
2022/11/20 11:05:33;;;;;;;24.52;10.43;;;;;;;;;;5046092;28;20045;-77
2022/11/20 11:07:59;;;;;;;24.52;10.30;;;;;;;;;;5045921;28;20121;-77
2022/11/20 11:10:36;;;;;;;24.48;10.10;;;;;;;;;;5050326;28;20096;-78
2022/11/20 11:13:03;;;;;;;31.63;10.73;;;;;;;;;;5043306;28;20056;-79
2022/11/20 11:15:36;;;;;;;26.75;10.32;;;;;;;;;;5048353;28;20060;-79
2022/11/20 11:18:02;;;;;;;29.60;10.93;;;;;;;;;;5058982;28;20093;-78
2022/11/20 11:20:29;;;;;;;22.98;9.75;;;;;;;;;;5069924;28;20048;-77
2022/11/20 11:22:56;;;;;;;25.50;9.80;;;;;;;;;;5039472;28;20486;-79
2022/11/20 11:25:26;;;;;;;21.67;9.88;;;;;;;;;;5063098;28;20084;-79
2022/11/20 11:27:54;;;;;;;23.23;9.82;;;;;;;;;;5047362;28;20045;-77
2022/11/20 11:30:21;;;;;;;17.98;8.90;;;;;;;;;;5047908;28;20045;-78
2022/11/20 11:32:48;;;;;;;21.45;10.02;;;;;;;;;;5048838;28;20080;-80
2022/11/20 11:35:27;;;;;;;23.42;10.27;;;;;;;;;;5043154;28;20058;-77
2022/11/20 11:38:02;;;;;;;21.17;10.38;;;;;;;;;;5046882;28;20063;-78
2022/11/20 11:40:30;;;;;;;23.70;10.30;;;;;;;;;;5045436;28;20053;-79
2022/11/20 11:42:58;;;;;;;25.85;10.40;;;;;;;;;;5042453;28;20075;-78
2022/11/20 11:45:25;;;;;;;23.55;10.30;;;;;;;;;;5050854;28;20468;-80
2022/11/20 11:47:53;;;;;;;24.40;10.68;;;;;;;;;;5044317;28;20047;-80
2022/11/20 11:50:24;;;;;;;24.85;10.95;;;;;;;;;;5051422;28;20064;-79
2022/11/20 11:52:57;;;;;;;25.00;10.60;;;;;;;;;;5050582;28;20083;-78
2022/11/20 11:55:42;;;;;;;19.55;9.00;;;;;;;;;;5043872;28;20079;-80
2022/11/20 11:58:27;;;;;;;23.08;10.27;;;;;;;;;;5052202;28;20049;-79
2022/11/20 12:01:01;;;;;;;23.70;10.13;;;;;;;;;;5050378;28;20068;-78
2022/11/20 12:03:35;;;;;;;21.10;9.68;;;;;;;;;;5063390;28;20565;-77
2022/11/20 12:06:05;;;;;;;26.20;10.70;;;;;;;;;;5049225;28;20044;-78
2022/11/20 12:08:31;;;;;;;24.83;10.45;;;;;;;;;;5048948;28;20053;-79
2022/11/20 12:11:10;;;;;;;24.35;11.07;;;;;;;;;;5047477;28;20060;-76
2022/11/20 12:13:42;;;;;;;23.50;10.32;;;;;;;;;;5048555;28;20059;-77
2022/11/20 12:16:11;;;;;;;26.55;10.05;;;;;;;;;;5049271;28;20049;-79
2022/11/20 12:18:38;;;;;;;23.42;9.57;;;;;;;;;;5055504;28;20059;-77
2022/11/20 12:21:20;;;;;;;21.35;9.85;;;;;;;;;;5056761;28;20056;-77
2022/11/20 12:23:58;;;;;;;20.88;9.05;;;;;;;;;;5051245;28;20226;-78
2022/11/20 12:26:31;;;;;;;22.23;9.00;;;;;;;;;;5048983;28;20053;-77
2022/11/20 12:29:06;;;;;;;18.23;8.50;;;;;;;;;;5053795;28;20105;-77
2022/11/20 12:31:32;;;;;;;;;;;;;;;;;;5051875;28;20056;-79
2022/11/20 12:34:05;;;;;;;18.92;7.68;;;;;;;;;;5054281;28;19943;-79
2022/11/20 12:36:31;;;;;;;19.25;8.52;;;;;;;;;;5040359;28;20563;-77
2022/11/20 12:39:08;;;;;;;19.92;8.32;;;;;;;;;;5052634;28;20053;-78
2022/11/20 12:47:27;;;;;;;18.10;8.00;;;;;;;;;;5053726;28;20052;-77
2022/11/20 12:50:26;;;;;;;20.95;8.75;;;;;;;;;;5055727;28;20064;-78
2022/11/20 12:52:58;;;;;;;26.33;10.00;;;;;;;;;;5026540;28;20369;-79
2022/11/20 12:55:31;;;;;;;23.00;9.88;;;;;;;;;;5049047;28;20139;-79
2022/11/20 12:58:00;;;;;;;26.95;9.43;;;;;;;;;;5052979;28;20055;-79
2022/11/20 13:00:27;;;;;;;24.67;9.90;;;;;;;;;;5053260;28;20056;-78
2022/11/20 13:03:09;;;;;;;24.95;9.95;;;;;;;;;;5054704;28;20052;-80
2022/11/20 13:05:50;;;;;;;26.27;10.35;;;;;;;;;;5052231;28;20234;-76
2022/11/20 13:08:31;;;;;;;27.85;11.05;;;;;;;;;;5046607;28;20057;-79
2022/11/20 13:11:01;;;;;;;28.63;11.80;;;;;;;;;;5048399;28;20216;-80
2022/11/20 13:13:31;;;;;;;27.33;11.40;;;;;;;;;;5049524;28;20114;-79
2022/11/20 13:16:00;;;;;;;28.00;12.35;;;;;;;;;;5048806;28;20057;-76
2022/11/20 13:18:27;;;;;;;32.70;12.13;;;;;;;;;;5050182;28;20049;-77
2022/11/20 13:20:53;;;;;;;30.05;12.98;;;;;;;;;;5051307;28;20056;-80
2022/11/20 13:23:27;;;;;;;30.90;12.30;;;;;;;;;;5050439;28;20045;-79
2022/11/20 13:26:04;;;;;;;31.08;13.02;;;;;;;;;;5049769;28;20264;-80
2022/11/20 13:28:30;;;;;;;31.00;13.15;;;;;;;;;;5033057;28;20149;-79
2022/11/20 13:30:57;;;;;;;31.25;14.23;;;;;;;;;;5033890;28;20045;-79
2022/11/20 13:33:29;;;;;;;34.22;13.85;;;;;;;;;;5033143;28;20049;-80
2022/11/20 13:36:05;;;;;;;31.27;12.25;;;;;;;;;;4985071;28;1438898;-79
2022/11/20 13:38:46;;;;;;;32.20;13.30;;;;;;;;;;5035124;28;20053;-79
2022/11/20 13:41:28;;;;;;;32.10;13.50;;;;;;;;;;5035530;28;20045;-79
2022/11/20 13:44:24;;;;;;;33.58;13.38;;;;;;;;;;5036764;28;20128;-79
2022/11/20 13:46:51;;;;;;;35.47;12.63;;;;;;;;;;5033820;28;20053;-79
2022/11/20 13:49:21;;;;;;;31.92;12.85;;;;;;;;;;5048272;28;20109;-78
2022/11/20 13:51:50;;;;;;;32.97;12.57;;;;;;;;;;5048522;28;20046;-79
2022/11/20 13:54:20;;;;;;;31.65;12.73;;;;;;;;;;5033247;28;20045;-78
2022/11/20 13:56:53;;;;;;;29.60;12.63;;;;;;;;;;5032640;28;20057;-80
2022/11/20 13:59:32;;;;;;;29.13;12.20;;;;;;;;;;5033282;28;20517;-78
2022/11/20 14:01:59;;;;;;;30.15;13.07;;;;;;;;;;5033216;28;20053;-79
2022/11/20 14:04:30;;;;;;;27.80;11.60;;;;;;;;;;5046406;28;20507;-77
2022/11/20 14:06:56;;;;;;;30.45;11.82;;;;;;;;;;5051437;28;20041;-78
2022/11/20 14:09:30;;;;;;;30.77;12.43;;;;;;;;;;5051365;28;20049;-76
2022/11/20 14:11:57;;;;;;;29.02;11.57;;;;;;;;;;5050085;28;20049;-80
2022/11/20 14:14:27;;;;;;;24.95;11.32;;;;;;;;;;5050047;28;20049;-77
2022/11/20 14:17:17;;;;;;;28.95;11.60;;;;;;;;;;5051045;28;20432;-78
2022/11/20 14:19:45;;;;;;;24.70;10.57;;;;;;;;;;5050826;28;20048;-78
2022/11/20 14:22:19;;;;;;;24.55;10.63;;;;;;;;;;5051683;28;20048;-78
2022/11/20 14:24:46;;;;;;;23.10;9.43;;;;;;;;;;5044512;28;20051;-77
2022/11/20 14:27:14;;;;;;;22.23;10.23;;;;;;;;;;5031763;28;20056;-79
2022/11/20 14:29:41;;;;;;;22.80;10.20;;;;;;;;;;5032081;28;20052;-79
2022/11/20 14:32:08;;;;;;;23.38;9.63;;;;;;;;;;5031250;28;20050;-79
2022/11/20 14:34:40;;;;;;;23.95;10.18;;;;;;;;;;5030858;28;20049;-79
2022/11/20 14:37:10;;;;;;;22.25;9.38;;;;;;;;;;5047692;28;20056;-78
2022/11/20 14:39:47;;;;;;;24.23;9.85;;;;;;;;;;5050051;28;20096;-77
2022/11/20 14:42:27;;;;;;;26.13;10.65;;;;;;;;;;5046048;28;20080;-75
2022/11/20 14:44:55;;;;;;;22.35;10.68;;;;;;;;;;5032081;28;20045;-80